Terminal Aerodrome Forecast
Issued by NWS

Home | Current Version | Previous Version | Text Only | Print | Product List | Glossary On
Versions: 1 2 3 4 5 6 7 8 9 10 11 12
000
FTUS44 KOUN 202325
TAFGAG
TAF
KGAG 202325Z 2100/2124 16011KT P6SM SKC
     FM210300 19012KT P6SM SCT250
     FM211700 22024G33KT P6SM SKC=

USA.gov is the U.S. government's official web portal to all federal, state and local government web resources and services.